Time;durP1;ratioP1;P1;durP2;ratioP2;P2;SDS_P1;SDS_P2;PMS_P1;PMS_P2;Temp;Humidity;BMP_temperature;BMP_pressure;BME280_temperature;BME280_humidity;BME280_pressure;Samples;Min_cycle;Max_cycle;Signal;HPM_P1;HPM_P2
2023/12/12 00:00:29;;;;;;;5.85;3.38;;;;;;;25.02;35.58;98921.41;4996200;28;20025;-46
2023/12/12 00:03:01;;;;;;;5.35;3.28;;;;;;;25.01;35.59;98919.91;4993212;28;20401;-44
2023/12/12 00:05:26;;;;;;;5.43;3.15;;;;;;;25.00;35.73;98914.88;4985297;28;20745;-44
2023/12/12 00:07:52;;;;;;;5.53;3.30;;;;;;;24.99;35.63;98899.56;4991320;28;20022;-46
2023/12/12 00:10:17;;;;;;;5.53;3.10;;;;;;;24.97;35.79;98913.91;5000564;28;20488;-45
2023/12/12 00:12:43;;;;;;;5.90;3.10;;;;;;;24.99;35.56;98919.66;4996324;28;20022;-45
2023/12/12 00:15:09;;;;;;;5.20;2.90;;;;;;;24.98;35.73;98920.91;4988403;28;20500;-43
2023/12/12 00:17:34;;;;;;;5.10;3.00;;;;;;;24.98;35.71;98929.19;4987847;28;20027;-44
2023/12/12 00:20:00;;;;;;;5.55;2.90;;;;;;;24.96;35.61;98920.69;4987549;28;20473;-45
2023/12/12 00:22:25;;;;;;;5.65;3.10;;;;;;;24.95;35.72;98916.44;4994646;28;20038;-46
2023/12/12 00:24:51;;;;;;;5.32;2.90;;;;;;;24.98;35.73;98904.34;4996024;28;20058;-46
2023/12/12 00:27:16;;;;;;;5.13;2.58;;;;;;;25.00;35.72;98918.41;4990228;28;20582;-42
2023/12/12 00:29:41;;;;;;;4.78;2.60;;;;;;;24.98;35.64;98920.91;4980246;28;20018;-46
2023/12/12 00:32:07;;;;;;;5.22;2.67;;;;;;;24.97;35.60;98930.47;4984025;28;20040;-43
2023/12/12 00:34:36;;;;;;;4.90;2.58;;;;;;;24.97;35.71;98924.22;4991829;28;20072;-43
2023/12/12 00:37:01;;;;;;;5.22;2.70;;;;;;;24.97;35.63;98915.94;4993121;28;20065;-44
2023/12/12 00:39:26;;;;;;;4.97;2.70;;;;;;;24.99;35.55;98914.13;4991088;28;20026;-40
2023/12/12 00:41:52;;;;;;;4.90;2.70;;;;;;;24.98;35.70;98914.66;4990201;28;20088;-45
2023/12/12 00:44:17;;;;;;;4.95;2.65;;;;;;;24.96;35.52;98909.66;4987542;28;20026;-43
2023/12/12 00:46:43;;;;;;;5.05;2.60;;;;;;;24.97;35.51;98910.41;4990860;28;20049;-43
2023/12/12 00:49:08;;;;;;;4.47;2.30;;;;;;;24.95;35.70;98921.97;4993976;28;20026;-43
2023/12/12 00:51:33;;;;;;;5.13;2.72;;;;;;;24.97;35.55;98919.44;4992906;28;20384;-43
2023/12/12 00:53:59;;;;;;;5.03;2.53;;;;;;;24.97;35.63;98911.16;4987138;28;20022;-42
2023/12/12 00:56:24;;;;;;;5.00;2.50;;;;;;;24.96;35.73;98912.41;4988481;28;20026;-42
2023/12/12 00:58:49;;;;;;;4.35;2.17;;;;;;;24.97;35.73;98908.41;4990526;28;20076;-43
2023/12/12 01:01:18;;;;;;;5.10;2.50;;;;;;;24.97;35.50;98916.69;4994134;28;20049;-44
2023/12/12 01:03:43;;;;;;;4.72;2.40;;;;;;;24.98;35.50;98925.72;4992670;28;20030;-43
2023/12/12 01:06:08;;;;;;;4.45;2.17;;;;;;;24.96;35.67;98911.66;4989885;28;20045;-46
2023/12/12 01:08:34;;;;;;;4.75;2.28;;;;;;;24.95;35.66;98905.38;4984980;28;20030;-43
2023/12/12 01:10:59;;;;;;;4.50;2.30;;;;;;;24.95;35.53;98904.63;4989823;28;20026;-46
2023/12/12 01:13:24;;;;;;;4.30;2.08;;;;;;;24.92;35.59;98903.63;4992095;28;20576;-44
2023/12/12 01:15:50;;;;;;;4.30;2.10;;;;;;;24.93;35.52;98899.59;4996448;28;20045;-42
2023/12/12 01:18:15;;;;;;;4.13;2.05;;;;;;;24.92;35.65;98911.91;4992033;28;20487;-43
2023/12/12 01:20:40;;;;;;;4.47;2.30;;;;;;;24.93;35.70;98913.41;4986568;28;20026;-41
2023/12/12 01:23:06;;;;;;;4.50;2.20;;;;;;;24.92;35.58;98900.84;4993420;28;20040;-44
2023/12/12 01:25:31;;;;;;;4.90;2.40;;;;;;;24.95;35.52;98899.88;4995085;28;20481;-43
2023/12/12 01:27:57;;;;;;;4.10;2.00;;;;;;;24.91;35.55;98891.06;4995878;28;20476;-43
2023/12/12 01:30:22;;;;;;;4.30;2.03;;;;;;;24.93;35.66;98888.56;4995836;28;20090;-43
2023/12/12 01:32:47;;;;;;;3.83;1.90;;;;;;;24.95;35.68;98888.06;4986228;28;20062;-46
2023/12/12 01:35:13;;;;;;;3.92;2.00;;;;;;;24.93;35.53;98893.31;4993933;28;20404;-44
2023/12/12 01:37:38;;;;;;;4.00;1.90;;;;;;;24.94;35.56;98881.81;4995051;28;20030;-42
2023/12/12 01:40:04;;;;;;;4.50;2.10;;;;;;;24.97;35.50;98880.03;4989221;28;20045;-44
2023/12/12 01:42:30;;;;;;;4.20;2.00;;;;;;;24.95;35.55;98877.03;4986519;28;20088;-47
2023/12/12 01:44:55;;;;;;;4.30;2.15;;;;;;;24.95;35.40;98875.03;4986193;28;20114;-43
2023/12/12 01:47:21;;;;;;;4.30;1.95;;;;;;;24.96;35.54;98861.97;4992406;28;20473;-43
2023/12/12 01:49:46;;;;;;;4.35;2.05;;;;;;;24.96;35.44;98865.47;4977994;28;20032;-43
2023/12/12 01:52:11;;;;;;;4.20;1.77;;;;;;;24.92;35.66;98873.25;4987410;28;20466;-42
2023/12/12 01:54:38;;;;;;;3.95;1.90;;;;;;;24.91;35.73;98871.75;4988487;28;20029;-43
2023/12/12 01:57:03;;;;;;;4.00;1.73;;;;;;;24.90;35.57;98867.50;4987590;28;20081;-43
2023/12/12 01:59:29;;;;;;;3.78;1.88;;;;;;;24.91;35.67;98868.25;4992759;28;20058;-44
2023/12/12 02:01:54;;;;;;;3.85;1.70;;;;;;;24.92;35.77;98859.44;4994021;28;20027;-42
2023/12/12 02:04:19;;;;;;;3.88;1.92;;;;;;;24.91;35.69;98857.19;4991904;28;20025;-42
2023/12/12 02:06:45;;;;;;;3.95;1.90;;;;;;;24.90;35.59;98856.44;4977708;28;20400;-45
2023/12/12 02:09:10;;;;;;;3.63;1.77;;;;;;;24.89;35.54;98868.75;4976796;28;20022;-43
2023/12/12 02:11:36;;;;;;;4.15;1.77;;;;;;;24.89;35.60;98851.44;4989337;28;20120;-43
2023/12/12 02:14:01;;;;;;;3.22;1.60;;;;;;;24.89;35.73;98849.44;4989345;28;20022;-45
2023/12/12 02:16:26;;;;;;;3.35;1.55;;;;;;;24.90;35.63;98844.66;4986391;28;20026;-46
2023/12/12 02:18:52;;;;;;;4.07;1.80;;;;;;;24.91;35.53;98851.69;4989299;28;20037;-46
2023/12/12 02:21:20;;;;;;;3.55;1.63;;;;;;;24.91;35.63;98851.69;4984462;28;20495;-47
2023/12/12 02:23:47;;;;;;;3.72;1.67;;;;;;;24.89;35.52;98868.00;4992316;28;20587;-43
2023/12/12 02:26:12;;;;;;;3.50;1.60;;;;;;;24.91;35.69;98877.28;4993210;28;20026;-43
2023/12/12 02:28:38;;;;;;;3.83;1.70;;;;;;;24.93;35.41;98885.03;4989071;28;20087;-43
2023/12/12 02:31:03;;;;;;;3.72;1.70;;;;;;;24.95;35.49;98866.75;4999610;28;20027;-44
2023/12/12 02:33:29;;;;;;;3.67;1.73;;;;;;;24.91;35.40;98863.47;4986234;28;20109;-45
2023/12/12 02:35:54;;;;;;;3.40;1.50;;;;;;;24.88;35.53;98850.69;4987128;28;20036;-42
2023/12/12 02:38:19;;;;;;;3.60;1.60;;;;;;;24.87;35.66;98854.72;4999612;28;20022;-44
2023/12/12 02:40:45;;;;;;;3.92;1.65;;;;;;;24.89;35.55;98846.66;4991521;28;20038;-43
2023/12/12 02:43:10;;;;;;;3.95;1.70;;;;;;;24.89;35.61;98843.16;4994866;28;20436;-43
2023/12/12 02:45:35;;;;;;;3.53;1.60;;;;;;;24.88;35.42;98836.13;4986356;28;20039;-43
2023/12/12 02:48:01;;;;;;;3.80;1.65;;;;;;;24.86;35.71;98825.59;4989578;28;20027;-43
2023/12/12 02:50:26;;;;;;;3.97;1.65;;;;;;;24.84;35.61;98822.59;4998360;28;20029;-44
2023/12/12 02:52:52;;;;;;;3.35;1.50;;;;;;;24.84;35.69;98816.34;4997214;28;20026;-46
2023/12/12 02:55:17;;;;;;;3.60;1.60;;;;;;;24.84;35.57;98819.84;4994534;28;20022;-45
2023/12/12 02:57:43;;;;;;;3.55;1.50;;;;;;;24.86;35.43;98819.34;4990766;28;20450;-43
2023/12/12 03:00:09;;;;;;;3.03;1.27;;;;;;;24.85;35.68;98807.53;4987768;28;20482;-45
2023/12/12 03:02:34;;;;;;;3.35;1.40;;;;;;;24.88;35.54;98803.75;4990901;28;20490;-42
2023/12/12 03:04:59;;;;;;;4.22;1.48;;;;;;;24.88;35.54;98816.81;4992084;28;20032;-45
2023/12/12 03:07:25;;;;;;;3.25;1.50;;;;;;;24.88;35.65;98812.03;4993195;28;20469;-45
2023/12/12 03:09:50;;;;;;;2.88;1.27;;;;;;;24.87;35.58;98798.75;4987496;28;20495;-42
2023/12/12 03:12:16;;;;;;;3.20;1.40;;;;;;;24.85;35.62;98790.97;4990372;28;20026;-46
2023/12/12 03:14:41;;;;;;;3.45;1.60;;;;;;;24.89;35.62;98801.75;4986028;28;20138;-42
2023/12/12 03:17:06;;;;;;;3.08;1.30;;;;;;;24.87;35.71;98805.03;4990710;28;20068;-43
2023/12/12 03:19:32;;;;;;;3.55;1.50;;;;;;;24.91;35.50;98810.28;4995238;28;20018;-43
2023/12/12 03:21:57;;;;;;;2.80;1.30;;;;;;;24.91;35.51;98796.47;4992144;28;20400;-42
2023/12/12 03:24:23;;;;;;;2.63;1.20;;;;;;;24.92;35.57;98786.94;4989756;28;20640;-42
2023/12/12 03:26:48;;;;;;;4.88;1.50;;;;;;;24.91;35.71;98788.94;4988672;28;20030;-41
2023/12/12 03:29:13;;;;;;;3.22;1.33;;;;;;;24.92;35.42;98790.44;4989755;28;20430;-49
2023/12/12 03:31:39;;;;;;;2.53;1.25;;;;;;;24.92;35.46;98779.41;4996203;28;20037;-48
2023/12/12 03:34:05;;;;;;;3.25;1.38;;;;;;;24.93;35.58;98782.91;4991562;28;20077;-45
2023/12/12 03:36:30;;;;;;;3.33;1.20;;;;;;;24.93;35.41;98789.19;4991213;28;20077;-46
2023/12/12 03:38:55;;;;;;;2.55;1.20;;;;;;;24.92;35.59;98779.41;4991625;28;20040;-45
2023/12/12 03:41:21;;;;;;;2.88;1.30;;;;;;;24.91;35.38;98775.13;4990286;28;20038;-44
2023/12/12 03:43:47;;;;;;;2.78;1.33;;;;;;;24.92;35.64;98776.63;4993370;28;20117;-46
2023/12/12 03:46:12;;;;;;;2.80;1.23;;;;;;;24.93;35.63;98769.84;4995551;28;20026;-42
2023/12/12 03:48:38;;;;;;;3.30;1.38;;;;;;;24.91;35.61;98774.38;4991808;28;20022;-48
2023/12/12 03:51:04;;;;;;;2.75;1.30;;;;;;;24.88;35.54;98765.13;4994261;28;20026;-49
2023/12/12 03:53:29;;;;;;;2.55;1.10;;;;;;;24.89;35.67;98761.09;4987056;28;20379;-46
2023/12/12 03:55:55;;;;;;;2.25;1.20;;;;;;;24.90;35.52;98746.03;4995650;28;20051;-43
2023/12/12 03:58:20;;;;;;;2.67;1.20;;;;;;;24.87;35.62;98738.78;4996463;28;20018;-42
2023/12/12 04:00:45;;;;;;;2.55;1.20;;;;;;;24.88;35.49;98740.28;4989487;28;20089;-45
2023/12/12 04:03:11;;;;;;;2.85;1.20;;;;;;;24.85;35.58;98735.03;4997137;28;20037;-46
2023/12/12 04:05:36;;;;;;;3.78;1.30;;;;;;;24.84;35.60;98737.03;4994201;28;20026;-47
2023/12/12 04:08:01;;;;;;;4.00;1.45;;;;;;;24.83;35.54;98734.78;4993894;28;20043;-45
2023/12/12 04:10:27;;;;;;;2.72;1.25;;;;;;;24.81;35.51;98729.03;4990871;28;20021;-46
2023/12/12 04:12:52;;;;;;;3.10;1.25;;;;;;;24.80;35.61;98731.06;4995978;28;20379;-43
2023/12/12 04:15:17;;;;;;;2.92;1.17;;;;;;;24.79;35.78;98729.56;4994028;28;20030;-43
2023/12/12 04:17:43;;;;;;;3.92;1.35;;;;;;;24.82;35.75;98725.75;4990397;28;20432;-42
2023/12/12 04:20:09;;;;;;;2.40;1.10;;;;;;;24.81;35.48;98723.53;4990468;28;20102;-48
2023/12/12 04:22:34;;;;;;;2.42;1.08;;;;;;;24.81;35.59;98724.28;4990271;28;20034;-46
2023/12/12 04:24:59;;;;;;;3.30;1.05;;;;;;;24.82;35.49;98730.53;4988858;28;20030;-45
2023/12/12 04:27:24;;;;;;;2.15;1.10;;;;;;;24.80;35.63;98733.81;4987038;28;20034;-46
2023/12/12 04:29:50;;;;;;;2.88;1.17;;;;;;;24.77;35.80;98734.84;4987876;28;20021;-44
2023/12/12 04:32:15;;;;;;;3.45;1.30;;;;;;;24.80;35.65;98733.06;4993750;28;20057;-45
2023/12/12 04:34:41;;;;;;;2.42;1.17;;;;;;;24.80;35.72;98741.34;4993443;28;20060;-45
2023/12/12 04:37:07;;;;;;;3.50;1.13;;;;;;;24.76;35.74;98738.88;4988398;28;20057;-43
2023/12/12 04:39:32;;;;;;;3.47;1.20;;;;;;;24.76;35.83;98733.34;4990667;28;20014;-44
2023/12/12 04:41:57;;;;;;;2.30;1.10;;;;;;;24.77;36.14;98743.13;4984348;28;20450;-46
2023/12/12 04:44:23;;;;;;;2.83;1.20;;;;;;;24.76;36.09;98738.88;4990283;28;20022;-45
2023/12/12 04:46:48;;;;;;;2.83;1.33;;;;;;;24.80;35.99;98742.09;4990078;28;20074;-44
2023/12/12 04:49:14;;;;;;;2.15;1.08;;;;;;;24.80;35.96;98744.84;4990152;28;20483;-43
2023/12/12 04:51:39;;;;;;;4.05;1.50;;;;;;;24.78;35.67;98730.09;4985253;28;20056;-43
2023/12/12 04:54:04;;;;;;;3.00;1.20;;;;;;;24.77;36.03;98723.06;4984637;28;20045;-43
2023/12/12 04:56:30;;;;;;;2.10;1.05;;;;;;;24.78;36.08;98713.53;4989989;28;20026;-43
2023/12/12 04:58:55;;;;;;;3.47;1.30;;;;;;;24.77;36.08;98718.31;4990886;28;20026;-43
2023/12/12 05:01:21;;;;;;;2.95;1.10;;;;;;;24.79;35.91;98707.47;4989958;28;20037;-43
2023/12/12 05:03:47;;;;;;;2.47;1.00;;;;;;;24.81;35.87;98707.72;4988185;28;20026;-41
2023/12/12 05:06:12;;;;;;;2.28;0.93;;;;;;;24.83;35.92;98705.19;4983903;28;20395;-42
2023/12/12 05:08:38;;;;;;;3.05;1.00;;;;;;;24.82;35.97;98717.50;4991782;28;20692;-43
2023/12/12 05:11:04;;;;;;;3.20;1.20;;;;;;;24.85;35.91;98702.66;4991555;28;20030;-43
2023/12/12 05:13:30;;;;;;;3.38;1.10;;;;;;;24.83;35.83;98683.09;4990891;28;20018;-44
2023/12/12 05:15:55;;;;;;;2.30;1.00;;;;;;;24.83;36.01;98683.09;4989444;28;20122;-43
2023/12/12 05:18:21;;;;;;;3.58;1.25;;;;;;;24.84;36.05;98684.59;4985060;28;20030;-49
2023/12/12 05:20:47;;;;;;;4.50;1.35;;;;;;;24.88;35.85;98698.13;4995063;28;20045;-48
2023/12/12 05:23:12;;;;;;;2.33;1.00;;;;;;;24.86;35.94;98695.88;4992511;28;20098;-45
2023/12/12 05:25:39;;;;;;;4.38;1.10;;;;;;;24.90;36.14;98701.88;4991920;28;20026;-43
2023/12/12 05:28:05;;;;;;;2.70;1.08;;;;;;;24.89;35.96;98697.63;4988319;28;20509;-47
2023/12/12 05:30:31;;;;;;;4.07;1.20;;;;;;;24.92;36.60;98691.06;4983605;28;20026;-50
2023/12/12 05:32:56;;;;;;;10.63;1.35;;;;;;;24.96;36.16;98686.03;4991420;28;20041;-43
2023/12/12 05:35:22;;;;;;;7.97;1.60;;;;;;;24.92;36.39;98671.75;4997934;28;20389;-41
2023/12/12 05:37:47;;;;;;;4.13;1.13;;;;;;;24.96;36.56;98672.25;4990727;28;20025;-46
2023/12/12 05:40:16;;;;;;;3.70;1.10;;;;;;;24.98;36.54;98655.16;4987153;28;20030;-47
2023/12/12 05:42:41;;;;;;;3.25;1.20;;;;;;;25.00;36.50;98652.59;4985935;28;20078;-50
2023/12/12 05:45:07;;;;;;;4.63;1.23;;;;;;;24.97;36.52;98648.88;4989122;28;20397;-48
2023/12/12 05:47:32;;;;;;;3.13;1.10;;;;;;;24.99;36.50;98667.66;4992312;28;20038;-47
2023/12/12 05:49:58;;;;;;;2.55;1.10;;;;;;;25.02;36.44;98678.44;4988019;28;20486;-45
2023/12/12 05:52:25;;;;;;;3.35;1.15;;;;;;;25.01;36.43;98687.22;4987210;28;20141;-47
2023/12/12 05:54:50;;;;;;;3.22;1.10;;;;;;;24.99;36.43;98679.47;4983809;28;20030;-50
2023/12/12 05:57:16;;;;;;;2.95;1.10;;;;;;;24.99;36.55;98673.94;4987180;28;20109;-45
2023/12/12 05:59:41;;;;;;;3.97;1.30;;;;;;;24.98;36.69;98669.69;4990358;28;20034;-44
2023/12/12 06:02:07;;;;;;;3.67;0.90;;;;;;;24.98;36.89;98666.22;4992118;28;20034;-44
2023/12/12 06:04:35;;;;;;;2.83;1.00;;;;;;;25.02;36.68;98675.69;4991638;28;20022;-42
2023/12/12 06:07:01;;;;;;;2.92;0.93;;;;;;;25.04;36.60;98670.38;4980224;28;20406;-43
2023/12/12 06:09:27;;;;;;;3.72;1.02;;;;;;;25.01;36.75;98654.84;4985018;28;20629;-46
2023/12/12 06:11:52;;;;;;;6.47;1.45;;;;;;;24.99;36.90;98646.34;4990247;28;20110;-50
2023/12/12 06:14:17;;;;;;;4.18;1.30;;;;;;;24.98;36.66;98653.13;4991741;28;20038;-43
2023/12/12 06:16:43;;;;;;;3.50;1.15;;;;;;;24.96;36.59;98641.13;4994712;28;20034;-45
2023/12/12 06:19:09;;;;;;;3.55;1.20;;;;;;;24.91;36.82;98628.84;4991280;28;20673;-47
2023/12/12 06:21:34;;;;;;;2.38;1.10;;;;;;;24.93;36.54;98653.16;4989903;28;20095;-42
2023/12/12 06:24:01;;;;;;;3.78;1.10;;;;;;;24.93;36.74;98656.69;4994011;28;20022;-44
2023/12/12 06:26:27;;;;;;;10.35;1.08;;;;;;;24.97;36.63;98646.13;4996620;28;20094;-45
2023/12/12 06:28:52;;;;;;;2.50;1.02;;;;;;;25.07;36.62;98638.25;4995950;28;20119;-43
2023/12/12 06:31:17;;;;;;;5.43;1.15;;;;;;;25.01;36.35;98637.53;4990439;28;20018;-49
2023/12/12 06:33:43;;;;;;;4.95;1.10;;;;;;;25.03;36.68;98635.75;4992754;28;20450;-46
2023/12/12 06:36:09;;;;;;;2.70;1.17;;;;;;;25.01;36.41;98635.53;4994858;28;20030;-46
2023/12/12 06:38:34;;;;;;;4.85;1.20;;;;;;;24.98;36.70;98641.34;4994120;28;20052;-47
2023/12/12 06:41:00;;;;;;;3.78;1.20;;;;;;;25.00;36.36;98638.81;4998473;28;20034;-50
2023/12/12 06:43:25;;;;;;;3.08;1.20;;;;;;;25.05;36.35;98636.00;4995197;28;20537;-50
2023/12/12 06:45:50;;;;;;;3.25;1.20;;;;;;;24.99;36.50;98629.78;4991696;28;20026;-48
2023/12/12 06:48:16;;;;;;;3.47;1.30;;;;;;;24.98;36.51;98635.84;4995558;28;20042;-49
2023/12/12 06:50:42;;;;;;;3.40;1.50;;;;;;;25.01;36.36;98637.53;4999578;28;20080;-44
2023/12/12 06:53:08;;;;;;;3.60;1.30;;;;;;;25.01;36.35;98640.28;4994712;28;20281;-44
2023/12/12 06:55:33;;;;;;;3.47;1.50;;;;;;;24.98;36.52;98644.13;4992155;28;20492;-47
2023/12/12 06:57:59;;;;;;;3.35;1.20;;;;;;;25.00;36.32;98645.06;4993617;28;20029;-46
2023/12/12 07:00:24;;;;;;;3.05;1.20;;;;;;;24.99;36.57;98627.00;4993841;28;20106;-43
2023/12/12 07:02:50;;;;;;;2.85;1.30;;;;;;;24.96;36.54;98638.38;4995964;28;20053;-43
2023/12/12 07:05:15;;;;;;;2.80;1.13;;;;;;;25.01;36.58;98632.75;4992280;28;20113;-41
2023/12/12 07:07:41;;;;;;;4.15;1.33;;;;;;;24.99;36.96;98640.06;4991343;28;20026;-49
2023/12/12 07:10:06;;;;;;;4.43;1.20;;;;;;;25.00;36.89;98633.28;4984447;28;20033;-47
2023/12/12 07:12:32;;;;;;;3.50;1.50;;;;;;;24.99;36.82;98635.28;4997246;28;20465;-45
2023/12/12 07:14:58;;;;;;;3.53;1.20;;;;;;;25.00;36.64;98642.31;4993922;28;20043;-45
2023/12/12 07:17:23;;;;;;;3.53;1.02;;;;;;;24.98;36.68;98628.28;4993498;28;20454;-44
2023/12/12 07:19:48;;;;;;;5.72;1.30;;;;;;;25.09;36.72;98623.91;4985313;28;20072;-44
2023/12/12 07:22:14;;;;;;;2.00;0.95;;;;;;;25.08;36.71;98625.19;4989563;28;20528;-45
2023/12/12 07:24:40;;;;;;;6.13;1.30;;;;;;;25.09;36.66;98623.91;4989570;28;20030;-44
2023/12/12 07:27:05;;;;;;;2.87;1.17;;;;;;;25.08;36.56;98634.22;4994758;28;20062;-44
2023/12/12 07:29:31;;;;;;;4.10;1.10;;;;;;;25.10;36.76;98639.22;4991233;28;20022;-42
2023/12/12 07:31:56;;;;;;;2.58;1.10;;;;;;;25.05;36.81;98635.25;4987754;28;20066;-43
2023/12/12 07:34:22;;;;;;;3.97;1.25;;;;;;;25.04;36.70;98634.50;4986196;28;20034;-42
2023/12/12 07:36:49;;;;;;;3.75;1.20;;;;;;;25.11;36.82;98632.44;4992378;28;20030;-42
2023/12/12 07:39:15;;;;;;;;;;;;;;;25.09;36.72;98623.91;4989331;28;20026;-43
2023/12/12 07:41:40;;;;;;;4.40;1.27;;;;;;;25.07;36.83;98621.66;4993719;28;19921;-42
2023/12/12 07:44:05;;;;;;;4.78;1.48;;;;;;;25.10;36.90;98622.66;4989755;28;20030;-42
2023/12/12 07:46:36;;;;;;;3.80;1.27;;;;;;;25.09;36.83;98618.41;4984646;28;20033;-40
2023/12/12 07:49:02;;;;;;;3.78;1.25;;;;;;;25.08;36.81;98612.13;4991672;28;20026;-42
2023/12/12 07:51:29;;;;;;;3.92;1.25;;;;;;;25.05;36.73;98613.91;4991580;28;20392;-41
2023/12/12 07:53:54;;;;;;;;;;;;;;;25.04;36.83;98609.66;4991714;28;20022;-41
2023/12/12 07:56:20;;;;;;;2.80;1.10;;;;;;;25.06;36.68;98606.38;4992170;28;19917;-40
2023/12/12 07:58:45;;;;;;;5.20;1.40;;;;;;;25.01;36.82;98605.16;4988959;28;20029;-40
2023/12/12 08:01:10;;;;;;;3.90;1.25;;;;;;;25.00;36.98;98597.38;4991910;28;20084;-41
2023/12/12 08:03:36;;;;;;;6.53;1.30;;;;;;;24.92;36.79;98597.22;4991066;28;20027;-42
2023/12/12 08:06:01;;;;;;;3.67;1.20;;;;;;;24.89;36.98;98589.97;4996332;28;20026;-42
2023/12/12 08:08:27;;;;;;;2.72;1.10;;;;;;;24.94;36.72;98578.16;4989695;28;20018;-41
2023/12/12 08:10:53;;;;;;;4.63;1.20;;;;;;;24.97;36.83;98576.38;4989473;28;20105;-42
2023/12/12 08:13:18;;;;;;;4.15;1.30;;;;;;;25.00;36.78;98581.56;4989334;28;20028;-41
2023/12/12 08:15:44;;;;;;;4.25;1.30;;;;;;;25.01;36.70;98566.50;4993117;28;20022;-42
2023/12/12 08:18:11;;;;;;;2.28;1.10;;;;;;;25.01;36.76;98563.00;5001237;28;20041;-42
2023/12/12 08:20:36;;;;;;;5.60;1.58;;;;;;;24.94;36.43;98563.56;4988046;28;20035;-44
2023/12/12 08:23:03;;;;;;;4.07;1.30;;;;;;;24.90;36.48;98550.06;4985584;28;20042;-42
2023/12/12 08:25:28;;;;;;;3.85;1.20;;;;;;;25.12;36.54;98551.84;4989646;28;20022;-43
2023/12/12 08:27:54;;;;;;;3.92;1.00;;;;;;;25.19;40.62;98569.81;4993015;28;20389;-44
2023/12/12 08:30:19;;;;;;;3.63;1.25;;;;;;;25.18;37.71;98563.53;4992614;28;20030;-43
2023/12/12 08:32:44;;;;;;;2.70;1.20;;;;;;;25.16;42.54;98568.13;4990897;28;20034;-44
2023/12/12 08:35:10;;;;;;;5.22;1.70;;;;;;;25.59;39.54;98582.59;4985791;28;20389;-42
2023/12/12 08:37:35;;;;;;;7.00;2.10;;;;;;;25.80;39.34;98580.06;4988834;28;20025;-39
2023/12/12 08:40:01;;;;;;;8.80;2.20;;;;;;;25.99;38.60;98594.63;4992884;28;20021;-42
2023/12/12 08:42:26;;;;;;;4.90;1.42;;;;;;;25.55;37.21;98595.25;4994132;28;20095;-42
2023/12/12 08:44:51;;;;;;;5.05;1.50;;;;;;;25.36;37.86;98603.53;4994812;28;20030;-42
2023/12/12 08:47:17;;;;;;;4.53;1.50;;;;;;;25.29;37.77;98606.88;4986825;28;20431;-43
2023/12/12 08:49:42;;;;;;;4.20;1.70;;;;;;;25.28;38.47;98602.59;4989147;28;20026;-43
2023/12/12 08:52:07;;;;;;;3.38;1.40;;;;;;;25.30;38.47;98602.84;4991673;28;20034;-52
2023/12/12 08:54:35;;;;;;;4.20;1.30;;;;;;;25.26;38.49;98607.91;4990988;28;20033;-44
2023/12/12 08:57:02;;;;;;;5.35;1.30;;;;;;;25.21;38.66;98612.22;4993385;28;20371;-44
2023/12/12 08:59:28;;;;;;;4.55;1.20;;;;;;;25.19;38.28;98611.97;4988200;28;20568;-44
2023/12/12 09:01:53;;;;;;;5.03;1.30;;;;;;;25.18;38.46;98615.28;4986304;28;20060;-45
2023/12/12 09:04:19;;;;;;;3.03;1.35;;;;;;;25.07;38.41;98607.88;4296681;28;10000393;-43
2023/12/12 09:06:44;;;;;;;3.35;1.10;;;;;;;25.05;38.40;98602.09;4989794;28;20030;-45
2023/12/12 09:09:11;;;;;;;3.17;1.10;;;;;;;25.03;38.10;98593.59;4990644;28;20036;-43
2023/12/12 09:11:37;;;;;;;5.82;1.25;;;;;;;25.12;38.07;98595.28;4983631;28;20021;-43
2023/12/12 09:14:02;;;;;;;4.82;1.40;;;;;;;25.13;38.06;98597.50;4985378;28;20022;-44
2023/12/12 09:16:28;;;;;;;2.92;1.20;;;;;;;25.14;38.28;98607.28;4989812;28;20389;-45
2023/12/12 09:18:53;;;;;;;2.53;1.10;;;;;;;25.11;38.17;98607.59;4993217;28;20034;-42
2023/12/12 09:21:18;;;;;;;5.00;1.30;;;;;;;25.15;38.24;98605.28;4993352;28;20040;-40
2023/12/12 09:23:44;;;;;;;4.05;1.42;;;;;;;25.16;38.07;98606.78;4989404;28;20393;-47
2023/12/12 09:26:15;;;;;;;4.05;1.10;;;;;;;25.20;38.07;98582.34;4985055;28;20027;-45
2023/12/12 09:28:41;;;;;;;3.33;1.20;;;;;;;25.21;37.86;98570.03;4993700;28;20136;-43
2023/12/12 09:31:07;;;;;;;4.72;1.20;;;;;;;25.14;37.78;98565.13;4999491;28;20026;-43
2023/12/12 09:33:36;;;;;;;2.47;1.20;;;;;;;25.08;37.64;98561.69;4993505;28;20081;-43
2023/12/12 09:36:01;;;;;;;3.58;1.10;;;;;;;25.08;37.72;98545.84;4992087;28;20059;-42
2023/12/12 09:38:27;;;;;;;2.45;1.05;;;;;;;25.03;37.89;98541.88;4994392;28;20389;-43
2023/12/12 09:40:52;;;;;;;2.72;1.10;;;;;;;24.99;37.99;98552.47;4991746;28;20154;-43
2023/12/12 09:43:18;;;;;;;3.65;1.27;;;;;;;24.95;38.15;98546.53;4988244;28;20085;-43
2023/12/12 09:45:45;;;;;;;2.47;1.15;;;;;;;24.92;38.19;98535.75;4998811;28;20363;-45
2023/12/12 09:48:10;;;;;;;2.22;1.02;;;;;;;24.93;38.06;98531.72;4986343;28;20038;-43
2023/12/12 09:50:36;;;;;;;3.90;1.25;;;;;;;24.91;38.18;98528.72;4988609;28;20480;-43
2023/12/12 09:53:01;;;;;;;2.42;1.02;;;;;;;24.91;38.40;98518.44;4995356;28;20023;-43
2023/12/12 09:55:28;;;;;;;3.00;1.15;;;;;;;24.91;38.41;98518.44;4998611;28;20046;-43
2023/12/12 09:57:53;;;;;;;2.40;1.10;;;;;;;24.85;38.35;98514.97;4980267;28;20037;-43
2023/12/12 10:00:21;;;;;;;2.28;1.10;;;;;;;24.84;38.22;98519.00;4994242;28;20109;-43
2023/12/12 10:02:47;;;;;;;2.42;1.15;;;;;;;24.91;38.51;98518.44;4988338;28;20434;-43
2023/12/12 10:05:12;;;;;;;2.95;1.00;;;;;;;24.91;38.39;98506.63;4990135;28;20026;-42
2023/12/12 10:07:37;;;;;;;3.65;1.10;;;;;;;24.92;38.11;98503.34;4998415;28;20018;-43
2023/12/12 10:10:07;;;;;;;4.93;1.10;;;;;;;24.96;38.49;98497.56;4997110;28;20475;-43
2023/12/12 10:12:32;;;;;;;2.40;1.00;;;;;;;24.94;38.46;98500.84;4992921;28;20049;-43
2023/12/12 10:14:58;;;;;;;4.45;1.10;;;;;;;24.88;38.37;98491.13;4986796;28;20474;-42
2023/12/12 10:17:25;;;;;;;4.35;1.25;;;;;;;24.84;38.48;98485.13;4988058;28;20053;-42
2023/12/12 10:19:58;;;;;;;2.05;0.90;;;;;;;24.77;38.48;98472.69;4995795;28;20025;-43
2023/12/12 10:22:24;;;;;;;1.80;0.85;;;;;;;24.75;38.38;98475.22;4995389;28;20057;-43
2023/12/12 10:24:52;;;;;;;2.25;1.27;;;;;;;24.70;38.55;98465.00;4993469;28;20138;-41
2023/12/12 10:27:21;;;;;;;3.00;1.02;;;;;;;24.62;38.59;98464.06;4991651;28;20661;-42
2023/12/12 10:29:46;;;;;;;3.17;0.90;;;;;;;24.61;38.59;98451.53;4994500;28;20023;-43
2023/12/12 10:32:13;;;;;;;1.27;0.80;;;;;;;24.56;38.79;98452.38;4994361;28;20032;-42
2023/12/12 10:34:40;;;;;;;1.17;0.80;;;;;;;24.57;38.70;98438.06;4995839;28;20018;-42
2023/12/12 10:37:05;;;;;;;1.27;0.90;;;;;;;24.56;38.82;98438.56;4991966;28;20029;-43
2023/12/12 10:39:30;;;;;;;2.25;1.00;;;;;;;24.53;38.91;98425.81;4970813;28;20285;-41
2023/12/12 10:41:56;;;;;;;2.70;0.80;;;;;;;24.53;38.72;98420.31;4993303;28;20038;-42
2023/12/12 10:44:29;;;;;;;1.35;0.98;;;;;;;24.56;38.71;98422.03;4992956;28;20026;-44
2023/12/12 10:46:54;;;;;;;2.67;1.10;;;;;;;24.61;38.50;98408.16;4993499;28;20053;-43
2023/12/12 10:49:23;;;;;;;7.47;0.90;;;;;;;24.62;38.68;98409.63;4988675;28;20032;-43
2023/12/12 10:51:48;;;;;;;5.53;1.15;;;;;;;24.63;38.99;98400.09;4970368;28;20027;-41
2023/12/12 10:54:15;;;;;;;2.72;0.90;;;;;;;24.58;38.04;98381.59;4998415;28;20496;-41
2023/12/12 10:56:44;;;;;;;3.13;0.95;;;;;;;24.62;38.32;98376.53;4993012;28;20644;-41
2023/12/12 10:59:10;;;;;;;3.67;1.42;;;;;;;24.63;39.12;98361.47;4995980;28;20064;-42
2023/12/12 11:01:35;;;;;;;7.18;2.22;;;;;;;24.61;40.08;98352.97;4994713;28;20034;-41
2023/12/12 11:04:05;;;;;;;5.32;2.22;;;;;;;24.62;40.42;98345.44;4973000;28;20089;-43
2023/12/12 11:06:30;;;;;;;5.85;2.45;;;;;;;24.61;40.21;98335.66;4993028;28;20527;-42
2023/12/12 11:08:56;;;;;;;6.03;2.17;;;;;;;24.63;39.81;98335.88;4987851;28;20026;-41
2023/12/12 11:11:21;;;;;;;4.00;1.55;;;;;;;24.61;39.55;98341.19;4992924;28;20413;-41
2023/12/12 11:13:46;;;;;;;3.33;1.40;;;;;;;24.60;39.59;98334.19;4993711;28;20033;-41
2023/12/12 11:16:13;;;;;;;3.97;1.60;;;;;;;24.63;39.66;98335.88;4989443;28;20034;-42
2023/12/12 11:18:39;;;;;;;3.50;1.48;;;;;;;24.66;39.35;98326.56;4988425;28;20474;-42
2023/12/12 11:21:05;;;;;;;3.05;1.40;;;;;;;24.72;39.19;98322.47;4302659;28;10000259;-42
2023/12/12 11:23:42;;;;;;;3.95;1.65;;;;;;;24.77;39.03;98314.66;4985470;28;20525;-43
2023/12/12 11:26:07;;;;;;;3.40;1.50;;;;;;;24.83;39.10;98321.56;4986539;28;20035;-41